createdAt,value
2024-04-15T00:01:32.337Z,48.43
2024-04-15T00:03:59.220Z,48.87
2024-04-15T00:06:26.058Z,49.03
2024-04-15T00:08:53.895Z,49.34
2024-04-15T00:11:21.068Z,49.42
2024-04-15T00:13:47.873Z,48.49
2024-04-15T00:16:14.919Z,49.57
2024-04-15T00:18:42.056Z,48.12
2024-04-15T00:21:12.205Z,49.16
2024-04-15T00:23:39.316Z,49.18
2024-04-15T00:26:06.323Z,48.41
2024-04-15T00:28:33.532Z,49.61
2024-04-15T00:31:00.915Z,49.91
2024-04-15T00:33:28.104Z,49.13
2024-04-15T00:35:55.561Z,49.59
2024-04-15T00:38:22.847Z,50.45
2024-04-15T00:40:49.791Z,49.17
2024-04-15T00:43:17.087Z,48.78
2024-04-15T00:45:44.515Z,49.14
2024-04-15T00:48:16.734Z,48.24
2024-04-15T00:50:46.731Z,49.29
2024-04-15T00:53:16.486Z,48.74
2024-04-15T00:55:48.411Z,49.20
2024-04-15T00:58:17.340Z,48.28
2024-04-15T01:00:45.413Z,49.21
2024-04-15T01:03:14.037Z,48.71
2024-04-15T01:05:41.100Z,49.27
2024-04-15T01:08:08.965Z,49.42
2024-04-15T01:10:46.398Z,50.89
2024-04-15T01:13:22.264Z,49.19
2024-04-15T01:15:56.210Z,49.31
2024-04-15T01:18:23.234Z,50.46
2024-04-15T01:20:51.634Z,50.29
2024-04-15T01:23:23.538Z,50.43
2024-04-15T01:25:51.303Z,50.24
2024-04-15T01:28:21.262Z,51.12
2024-04-15T01:30:49.342Z,49.92
2024-04-15T01:33:16.792Z,50.18
2024-04-15T01:35:43.654Z,50.29
2024-04-15T01:38:10.563Z,51.77
2024-04-15T01:40:37.588Z,50.48
2024-04-15T01:43:04.684Z,51.10
2024-04-15T01:45:31.791Z,50.22
2024-04-15T01:47:59.463Z,51.46
2024-04-15T01:50:26.491Z,51.44
2024-04-15T01:52:53.611Z,50.44
2024-04-15T01:55:20.560Z,51.41
2024-04-15T01:57:47.371Z,51.06
2024-04-15T02:00:14.460Z,50.89
2024-04-15T02:02:41.611Z,51.60
2024-04-15T02:05:09.165Z,49.94
2024-04-15T02:07:37.661Z,51.06
2024-04-15T02:10:07.055Z,51.17
2024-04-15T02:12:34.133Z,49.98
2024-04-15T02:15:01.153Z,50.15
2024-04-15T02:17:28.212Z,50.19
2024-04-15T02:19:55.220Z,50.62
2024-04-15T02:22:22.234Z,50.92
2024-04-15T02:24:49.101Z,50.53
2024-04-15T02:27:15.906Z,51.37
2024-04-15T02:29:42.782Z,50.57
2024-04-15T02:32:09.814Z,51.17
2024-04-15T02:34:36.798Z,51.08
2024-04-15T02:37:03.824Z,51.56
2024-04-15T02:39:30.722Z,50.53
2024-04-15T02:41:57.462Z,51.82
2024-04-15T02:44:24.469Z,49.88
2024-04-15T02:46:51.500Z,49.77
2024-04-15T02:49:18.332Z,51.90
2024-04-15T02:51:45.224Z,52.22
2024-04-15T02:54:12.194Z,52.43
2024-04-15T02:56:39.170Z,54.16
2024-04-15T02:59:05.971Z,54.00
2024-04-15T03:01:32.892Z,54.40
2024-04-15T03:04:00.143Z,54.08
2024-04-15T03:06:27.256Z,54.43
2024-04-15T03:08:54.225Z,54.14
2024-04-15T03:11:21.072Z,55.04
2024-04-15T03:13:48.494Z,54.18
2024-04-15T03:16:20.120Z,53.40
2024-04-15T03:18:53.175Z,55.37
2024-04-15T03:21:20.082Z,55.15
2024-04-15T03:23:47.457Z,54.72
2024-04-15T03:26:14.350Z,55.10
2024-04-15T03:28:41.235Z,54.70
2024-04-15T03:31:08.302Z,54.98
2024-04-15T03:33:36.030Z,53.16
2024-04-15T03:36:03.177Z,54.31
2024-04-15T03:38:29.993Z,54.62
2024-04-15T03:40:56.821Z,54.62
2024-04-15T03:43:23.684Z,54.51
2024-04-15T03:45:50.518Z,55.83
2024-04-15T03:48:17.543Z,54.86
2024-04-15T03:50:44.574Z,54.90
2024-04-15T03:53:11.703Z,55.27
2024-04-15T03:55:38.796Z,55.88
2024-04-15T03:58:05.741Z,55.67
2024-04-15T04:00:32.633Z,56.03
2024-04-15T04:02:59.491Z,55.42
2024-04-15T04:05:26.283Z,53.91
2024-04-15T04:07:53.346Z,53.88
2024-04-15T04:10:21.274Z,54.29
2024-04-15T04:12:48.340Z,53.67
2024-04-15T04:15:15.635Z,54.81
2024-04-15T04:17:45.337Z,55.55
2024-04-15T04:20:13.128Z,55.62
2024-04-15T04:22:40.102Z,54.82
2024-04-15T04:25:07.195Z,53.22
2024-04-15T04:27:34.334Z,54.52
2024-04-15T04:30:01.440Z,54.54
2024-04-15T04:32:28.342Z,53.30
2024-04-15T04:34:55.893Z,54.92
2024-04-15T04:37:24.944Z,54.71
2024-04-15T04:39:52.373Z,53.59
2024-04-15T04:42:19.188Z,54.17
2024-04-15T04:44:46.010Z,53.67
2024-04-15T04:47:13.167Z,52.83
2024-04-15T04:49:40.051Z,51.69
2024-04-15T04:52:07.214Z,52.54
2024-04-15T04:54:34.063Z,52.51
2024-04-15T04:57:01.044Z,52.89
2024-04-15T04:59:28.087Z,51.78
2024-04-15T05:01:55.006Z,52.98
2024-04-15T05:04:22.161Z,53.21
2024-04-15T05:06:48.998Z,52.07
2024-04-15T05:09:15.918Z,52.26
2024-04-15T05:11:42.793Z,50.68
2024-04-15T05:14:09.624Z,49.72
2024-04-15T05:16:37.515Z,50.48
2024-04-15T05:19:04.422Z,50.61
2024-04-15T05:21:33.255Z,50.28
2024-04-15T05:24:00.511Z,51.38
2024-04-15T05:26:27.476Z,50.56
2024-04-15T05:28:54.312Z,49.04
2024-04-15T05:31:21.348Z,49.89
2024-04-15T05:33:48.869Z,51.15
2024-04-15T05:36:15.833Z,50.77
2024-04-15T05:38:42.700Z,49.57
2024-04-15T05:41:10.101Z,49.52
2024-04-15T05:43:36.922Z,49.65
2024-04-15T05:46:06.712Z,49.03
2024-04-15T05:48:33.929Z,49.25
2024-04-15T05:51:00.842Z,49.50
2024-04-15T05:53:27.948Z,48.93
2024-04-15T05:55:54.894Z,48.57
2024-04-15T05:58:22.276Z,46.37
2024-04-15T06:00:50.058Z,47.49
2024-04-15T06:03:17.114Z,47.10
2024-04-15T06:05:43.931Z,47.43
2024-04-15T06:08:11.834Z,45.33
2024-04-15T06:10:38.976Z,45.98
2024-04-15T06:13:06.004Z,46.00
2024-04-15T06:15:38.724Z,45.03
2024-04-15T06:18:08.961Z,43.02
2024-04-15T06:20:36.011Z,41.58
2024-04-15T06:23:03.073Z,42.84
2024-04-15T06:25:29.960Z,44.59
2024-04-15T06:27:56.969Z,46.08
2024-04-15T06:30:23.872Z,48.54
2024-04-15T06:32:51.432Z,48.44
2024-04-15T06:35:18.347Z,47.12
2024-04-15T06:37:45.332Z,46.17
2024-04-15T06:40:12.205Z,44.70
2024-04-15T06:42:39.394Z,44.96
2024-04-15T06:45:06.500Z,45.43
2024-04-15T06:47:33.331Z,46.19
2024-04-15T06:50:00.257Z,47.23
2024-04-15T06:52:27.706Z,46.62
2024-04-15T06:54:55.486Z,44.07
2024-04-15T06:57:22.475Z,46.05
2024-04-15T06:59:49.626Z,44.40
2024-04-15T07:02:21.096Z,42.66
2024-04-15T07:04:54.890Z,42.94
2024-04-15T07:07:27.207Z,41.71
2024-04-15T07:09:57.526Z,41.69
2024-04-15T07:12:25.135Z,43.56
2024-04-15T07:14:52.081Z,42.77
2024-04-15T07:17:18.926Z,42.40
2024-04-15T07:19:46.291Z,42.18
2024-04-15T07:22:13.571Z,43.15
2024-04-15T07:24:40.543Z,41.40
2024-04-15T07:27:07.505Z,41.59
2024-04-15T07:29:34.294Z,40.91
2024-04-15T07:32:01.121Z,40.02
2024-04-15T07:34:28.156Z,41.87
2024-04-15T07:36:55.033Z,41.06
2024-04-15T07:39:22.217Z,40.90
2024-04-15T07:41:49.119Z,39.28
2024-04-15T07:44:16.179Z,39.99
2024-04-15T07:46:43.191Z,40.00
2024-04-15T07:49:10.162Z,40.62
2024-04-15T07:51:37.222Z,40.65
2024-04-15T07:54:04.364Z,39.99
2024-04-15T07:56:31.312Z,41.17
2024-04-15T07:58:58.268Z,41.40
2024-04-15T08:01:25.497Z,40.22
2024-04-15T08:03:52.551Z,40.65
2024-04-15T08:06:19.405Z,38.98
2024-04-15T08:08:46.603Z,39.17
2024-04-15T08:11:13.786Z,39.15
2024-04-15T08:13:40.931Z,39.30
2024-04-15T08:16:07.977Z,39.80
2024-04-15T08:18:34.899Z,40.68
2024-04-15T08:21:01.714Z,38.66
2024-04-15T08:23:28.585Z,37.45
2024-04-15T08:25:57.286Z,37.34
2024-04-15T08:28:25.140Z,37.80
2024-04-15T08:30:52.293Z,38.10
2024-04-15T08:33:19.321Z,37.85
2024-04-15T08:35:46.224Z,38.35
2024-04-15T08:38:13.273Z,36.70
2024-04-15T08:40:47.154Z,37.74
2024-04-15T08:43:18.082Z,37.99
2024-04-15T08:45:46.601Z,38.93
2024-04-15T08:48:15.120Z,39.48
2024-04-15T08:50:41.997Z,38.87
2024-04-15T08:53:08.884Z,37.71
2024-04-15T08:55:35.828Z,38.11
2024-04-15T08:58:03.159Z,38.54
2024-04-15T09:00:31.267Z,37.18
2024-04-15T09:02:59.057Z,36.38
2024-04-15T09:05:26.056Z,37.94
2024-04-15T09:07:53.217Z,37.18
2024-04-15T09:10:20.665Z,36.66
2024-04-15T09:12:49.217Z,36.21
2024-04-15T09:15:17.206Z,35.13
2024-04-15T09:17:44.404Z,34.42
2024-04-15T09:20:11.974Z,35.66
2024-04-15T09:22:39.239Z,35.20
2024-04-15T09:25:06.961Z,34.00
2024-04-15T09:27:34.296Z,34.68
2024-04-15T09:30:04.291Z,33.76
2024-04-15T09:32:31.891Z,34.68
2024-04-15T09:35:01.066Z,34.61
2024-04-15T09:37:28.759Z,33.37
2024-04-15T09:39:56.382Z,33.16
2024-04-15T09:42:23.443Z,32.41
2024-04-15T09:44:50.826Z,33.59
2024-04-15T09:47:19.561Z,32.28
2024-04-15T09:49:48.391Z,30.91
2024-04-15T09:52:24.101Z,32.10
2024-04-15T09:54:56.543Z,32.50
2024-04-15T09:57:27.595Z,30.00
2024-04-15T09:59:58.943Z,32.38
2024-04-15T10:02:28.942Z,33.78
2024-04-15T10:05:19.213Z,30.71
2024-04-15T10:07:51.375Z,29.67
2024-04-15T10:10:21.062Z,30.50
2024-04-15T10:12:52.652Z,27.87
2024-04-15T10:15:20.888Z,28.91
2024-04-15T10:18:16.330Z,29.06
2024-04-15T10:20:45.050Z,28.97
2024-04-15T10:23:15.802Z,30.94
2024-04-15T10:25:43.873Z,29.74
2024-04-15T10:28:12.938Z,29.36
2024-04-15T10:30:41.888Z,29.78
2024-04-15T10:33:15.005Z,28.28
2024-04-15T10:35:42.162Z,27.47
2024-04-15T10:38:10.588Z,26.55
2024-04-15T10:40:40.306Z,28.42
2024-04-15T10:43:07.862Z,28.52
2024-04-15T10:45:35.214Z,27.18
2024-04-15T10:48:02.781Z,28.20
2024-04-15T10:50:29.791Z,26.56
2024-04-15T10:52:56.898Z,27.07
2024-04-15T10:55:24.208Z,27.35
2024-04-15T10:57:51.723Z,28.33
2024-04-15T11:00:22.880Z,27.77
2024-04-15T11:02:54.015Z,28.43
2024-04-15T11:05:22.995Z,28.27
2024-04-15T11:07:52.796Z,28.26
2024-04-15T11:10:19.955Z,28.13
2024-04-15T11:12:52.847Z,27.20
2024-04-15T11:15:20.267Z,27.83
2024-04-15T11:17:48.306Z,28.29
2024-04-15T11:20:16.529Z,28.68
2024-04-15T11:22:43.751Z,29.72
2024-04-15T11:25:13.681Z,29.68
2024-04-15T11:27:58.843Z,29.73
2024-04-15T11:30:30.471Z,31.59
2024-04-15T11:32:59.686Z,29.48
2024-04-15T11:35:27.011Z,30.09
2024-04-15T11:37:55.440Z,29.80
2024-04-15T11:40:24.351Z,30.14
2024-04-15T11:42:53.187Z,30.16
2024-04-15T11:45:20.336Z,29.81
2024-04-15T11:47:55.998Z,31.31
2024-04-15T11:50:23.286Z,35.99
2024-04-15T11:52:50.437Z,39.21
2024-04-15T11:55:22.756Z,39.99
2024-04-15T11:57:50.696Z,42.05
2024-04-15T12:00:17.630Z,45.09
2024-04-15T12:02:46.283Z,47.03
2024-04-15T12:05:14.465Z,44.55
2024-04-15T12:07:42.751Z,45.28
2024-04-15T12:10:10.210Z,46.11
2024-04-15T12:12:37.018Z,42.84
2024-04-15T12:15:06.057Z,42.96
2024-04-15T12:17:34.347Z,40.30
2024-04-15T12:20:04.127Z,40.29
2024-04-15T12:22:31.424Z,38.72
2024-04-15T12:25:07.734Z,37.87
2024-04-15T12:27:39.125Z,41.42
2024-04-15T12:30:08.465Z,40.35
2024-04-15T12:32:35.875Z,39.39
2024-04-15T12:35:02.805Z,39.81
2024-04-15T12:37:29.873Z,39.13
2024-04-15T12:39:56.769Z,40.11
2024-04-15T12:42:23.646Z,39.38
2024-04-15T12:44:50.587Z,39.68
2024-04-15T12:47:17.606Z,39.04
2024-04-15T12:49:44.663Z,39.54
2024-04-15T12:52:11.698Z,40.21
2024-04-15T12:54:38.502Z,40.73
2024-04-15T12:57:05.542Z,40.33
2024-04-15T12:59:32.503Z,41.75
2024-04-15T13:02:07.092Z,41.70
2024-04-15T13:04:36.684Z,41.33
2024-04-15T13:07:04.391Z,40.84
2024-04-15T13:09:31.467Z,40.55
2024-04-15T13:11:58.383Z,40.09
2024-04-15T13:14:25.225Z,40.44
2024-04-15T13:16:52.174Z,40.52
2024-04-15T13:19:19.303Z,41.15
2024-04-15T13:21:46.374Z,39.56
2024-04-15T13:24:13.455Z,38.04
2024-04-15T13:26:40.453Z,39.59
2024-04-15T13:29:07.393Z,38.78
2024-04-15T13:31:34.263Z,38.00
2024-04-15T13:34:01.945Z,39.12
2024-04-15T13:36:29.218Z,39.63
2024-04-15T13:38:56.442Z,38.72
2024-04-15T13:41:23.512Z,37.36
2024-04-15T13:43:50.484Z,37.94
2024-04-15T13:46:17.535Z,38.00
2024-04-15T13:48:44.587Z,38.46
2024-04-15T13:51:11.384Z,38.87
2024-04-15T13:53:38.224Z,40.01
2024-04-15T13:56:05.473Z,42.14
2024-04-15T13:58:32.546Z,40.44
2024-04-15T14:01:00.097Z,41.70
2024-04-15T14:03:27.136Z,41.67
2024-04-15T14:05:54.405Z,42.48
2024-04-15T14:08:21.942Z,41.97
2024-04-15T14:10:49.881Z,41.39
2024-04-15T14:13:18.466Z,40.23
2024-04-15T14:15:45.558Z,40.75
2024-04-15T14:18:12.508Z,41.28
2024-04-15T14:20:39.453Z,42.69
2024-04-15T14:23:06.736Z,43.66
2024-04-15T14:25:33.829Z,44.12
2024-04-15T14:28:01.033Z,44.13
2024-04-15T14:30:27.935Z,46.54
2024-04-15T14:32:55.021Z,47.45
2024-04-15T14:35:22.112Z,48.74
2024-04-15T14:37:50.970Z,49.76
2024-04-15T14:40:23.175Z,49.73
2024-04-15T14:42:52.023Z,50.74
2024-04-15T14:45:19.099Z,52.63
2024-04-15T14:47:46.911Z,53.90
2024-04-15T14:50:14.468Z,54.74
2024-04-15T14:52:41.534Z,56.43
2024-04-15T14:55:09.555Z,55.63
2024-04-15T14:57:36.582Z,56.11
2024-04-15T15:00:05.725Z,55.30
2024-04-15T15:02:32.681Z,56.11
2024-04-15T15:04:59.588Z,55.12
2024-04-15T15:07:27.088Z,55.44
2024-04-15T15:09:54.168Z,56.43
2024-04-15T15:12:21.619Z,54.79
2024-04-15T15:14:49.833Z,54.53
2024-04-15T15:17:16.662Z,54.33
2024-04-15T15:19:44.643Z,54.07
2024-04-15T15:22:14.303Z,51.23
2024-04-15T15:24:41.445Z,50.62
2024-04-15T15:27:08.822Z,53.41
2024-04-15T15:29:36.007Z,53.28
2024-04-15T15:32:03.073Z,52.44
2024-04-15T15:34:30.022Z,53.57
2024-04-15T15:36:59.854Z,56.12
2024-04-15T15:39:26.704Z,53.11
2024-04-15T15:41:53.956Z,50.78
2024-04-15T15:44:20.785Z,50.95
2024-04-15T15:46:47.650Z,52.51
2024-04-15T15:49:14.495Z,51.16
2024-04-15T15:51:42.442Z,50.24
2024-04-15T15:54:09.877Z,49.38
2024-04-15T15:56:39.288Z,48.04
2024-04-15T15:59:06.702Z,49.91
2024-04-15T16:01:35.079Z,50.62
2024-04-15T16:04:02.129Z,49.81
2024-04-15T16:06:29.121Z,49.52
2024-04-15T16:08:56.361Z,48.16
2024-04-15T16:11:31.480Z,49.60
2024-04-15T16:14:10.585Z,50.58
2024-04-15T16:16:37.909Z,50.68
2024-04-15T16:19:07.025Z,52.01
2024-04-15T16:21:34.221Z,53.26
2024-04-15T16:24:01.012Z,54.46
2024-04-15T16:26:27.830Z,53.86
2024-04-15T16:28:54.731Z,54.61
2024-04-15T16:31:21.850Z,53.38
2024-04-15T16:33:48.861Z,53.04
2024-04-15T16:36:15.942Z,55.00
2024-04-15T16:38:42.724Z,54.79
2024-04-15T16:41:09.673Z,53.27
2024-04-15T16:43:36.484Z,53.12
2024-04-15T16:46:03.439Z,54.67
2024-04-15T16:48:30.805Z,56.49
2024-04-15T16:50:57.674Z,57.04
2024-04-15T16:53:24.511Z,57.36
2024-04-15T16:55:52.813Z,58.65
2024-04-15T16:58:21.749Z,57.93
2024-04-15T17:00:49.811Z,57.43
2024-04-15T17:03:16.854Z,58.47
2024-04-15T17:05:45.233Z,58.45
2024-04-15T17:08:12.534Z,56.20
2024-04-15T17:10:39.514Z,57.63
2024-04-15T17:13:07.115Z,57.57
2024-04-15T17:15:34.398Z,55.73
2024-04-15T17:18:04.252Z,56.75
2024-04-15T17:20:31.744Z,55.89
2024-04-15T17:22:58.984Z,56.59
2024-04-15T17:25:25.942Z,55.77
2024-04-15T17:27:53.035Z,56.25
2024-04-15T17:30:20.209Z,55.89
2024-04-15T17:32:47.153Z,54.83
2024-04-15T17:35:14.080Z,57.09
2024-04-15T17:37:42.265Z,55.37
2024-04-15T17:40:10.259Z,53.13
2024-04-15T17:42:37.132Z,52.95
2024-04-15T17:45:04.586Z,56.18
2024-04-15T17:47:31.634Z,55.05
2024-04-15T17:49:58.874Z,54.86
2024-04-15T17:52:26.018Z,54.14
2024-04-15T17:54:53.117Z,55.60
2024-04-15T17:57:20.474Z,54.71
2024-04-15T17:59:47.331Z,52.43
2024-04-15T18:02:14.297Z,52.36
2024-04-15T18:04:41.272Z,52.18
2024-04-15T18:07:11.219Z,55.75
2024-04-15T18:09:39.664Z,54.11
2024-04-15T18:12:08.735Z,54.70
2024-04-15T18:14:35.964Z,59.50
2024-04-15T18:17:03.513Z,62.38
2024-04-15T18:19:30.751Z,61.84
2024-04-15T18:21:57.655Z,61.66
2024-04-15T18:24:28.698Z,59.90
2024-04-15T18:26:56.015Z,59.40
2024-04-15T18:29:22.899Z,60.32
2024-04-15T18:31:49.919Z,60.21
2024-04-15T18:34:16.910Z,56.46
2024-04-15T18:36:45.908Z,54.97
2024-04-15T18:39:13.273Z,54.52
2024-04-15T18:41:40.283Z,58.37
2024-04-15T18:44:07.236Z,57.50
2024-04-15T18:46:34.966Z,58.63
2024-04-15T18:49:02.122Z,59.18
2024-04-15T18:51:29.145Z,55.41
2024-04-15T18:53:57.356Z,57.01
2024-04-15T18:56:25.091Z,58.24
2024-04-15T18:58:52.368Z,57.95
2024-04-15T19:01:19.362Z,57.75
2024-04-15T19:03:46.438Z,58.24
2024-04-15T19:06:13.629Z,56.62
2024-04-15T19:08:40.602Z,55.72
2024-04-15T19:11:07.674Z,57.01
2024-04-15T19:13:34.722Z,56.70
2024-04-15T19:16:01.719Z,58.21
2024-04-15T19:18:29.284Z,56.96
2024-04-15T19:20:56.286Z,56.91
2024-04-15T19:23:23.136Z,55.04
2024-04-15T19:25:50.249Z,55.90
2024-04-15T19:28:17.151Z,57.52
2024-04-15T19:30:44.066Z,55.78
2024-04-15T19:33:11.056Z,55.59
2024-04-15T19:35:38.019Z,55.33
2024-04-15T19:38:05.183Z,52.60
2024-04-15T19:40:32.250Z,52.56
2024-04-15T19:43:00.384Z,54.40
2024-04-15T19:45:27.298Z,52.81
2024-04-15T19:47:54.488Z,53.31
2024-04-15T19:50:21.987Z,55.63
2024-04-15T19:52:48.813Z,56.15
2024-04-15T19:55:17.187Z,55.54
2024-04-15T19:57:45.527Z,52.24
2024-04-15T20:00:13.383Z,53.85
2024-04-15T20:02:40.724Z,52.61
2024-04-15T20:05:08.566Z,52.22
2024-04-15T20:07:37.099Z,54.64
2024-04-15T20:10:04.403Z,55.27
2024-04-15T20:12:32.818Z,55.91
2024-04-15T20:15:02.645Z,55.21
2024-04-15T20:17:44.179Z,57.28
2024-04-15T20:20:16.171Z,57.10
2024-04-15T20:22:43.793Z,56.44
2024-04-15T20:25:11.922Z,58.28
2024-04-15T20:27:38.941Z,55.67
2024-04-15T20:30:06.894Z,54.67
2024-04-15T20:32:34.427Z,55.80
2024-04-15T20:35:01.815Z,59.15
2024-04-15T20:37:29.079Z,60.19
2024-04-15T20:39:56.260Z,58.06
2024-04-15T20:42:23.590Z,60.73
2024-04-15T20:44:52.233Z,61.05
2024-04-15T20:47:20.367Z,61.11
2024-04-15T20:49:47.243Z,61.31
2024-04-15T20:52:14.193Z,60.31
2024-04-15T20:54:41.097Z,60.92
2024-04-15T20:57:09.277Z,60.50
2024-04-15T20:59:36.181Z,59.14
2024-04-15T21:02:03.270Z,58.79
2024-04-15T21:04:30.270Z,59.14
2024-04-15T21:06:57.355Z,59.08
2024-04-15T21:09:24.250Z,59.18
2024-04-15T21:11:51.254Z,59.79
2024-04-15T21:14:18.091Z,59.81
2024-04-15T21:16:46.216Z,59.65
2024-04-15T21:19:13.323Z,60.33
2024-04-15T21:21:40.463Z,59.76
2024-04-15T21:24:07.840Z,59.13
2024-04-15T21:26:34.755Z,57.78
2024-04-15T21:29:02.123Z,56.33
2024-04-15T21:31:29.180Z,55.22
2024-04-15T21:33:56.243Z,54.09
2024-04-15T21:36:23.257Z,53.11
2024-04-15T21:38:51.697Z,54.41
2024-04-15T21:41:18.602Z,54.74
2024-04-15T21:43:45.494Z,56.08
2024-04-15T21:46:12.719Z,54.37
2024-04-15T21:48:39.686Z,53.63
2024-04-15T21:51:06.664Z,52.62
2024-04-15T21:53:33.551Z,52.85
2024-04-15T21:56:00.405Z,52.04
2024-04-15T21:58:27.324Z,52.68
2024-04-15T22:00:54.642Z,52.72
2024-04-15T22:03:21.530Z,52.38
2024-04-15T22:05:49.162Z,52.67
2024-04-15T22:08:16.363Z,52.39
2024-04-15T22:10:43.781Z,52.73
2024-04-15T22:13:11.474Z,53.56
2024-04-15T22:15:38.628Z,54.27
2024-04-15T22:18:08.345Z,54.46
2024-04-15T22:20:35.562Z,53.42
2024-04-15T22:23:02.932Z,52.78
2024-04-15T22:25:30.241Z,52.88
2024-04-15T22:27:57.266Z,54.85
2024-04-15T22:30:24.372Z,54.00
2024-04-15T22:32:51.359Z,56.37
2024-04-15T22:35:18.682Z,57.54
2024-04-15T22:37:45.809Z,55.99
2024-04-15T22:40:12.787Z,53.46
2024-04-15T22:42:39.800Z,54.70
2024-04-15T22:45:07.569Z,54.89
2024-04-15T22:47:34.898Z,53.67
2024-04-15T22:50:02.081Z,57.60
2024-04-15T22:52:29.001Z,55.90
2024-04-15T22:54:56.011Z,57.53
2024-04-15T22:57:22.956Z,57.51
2024-04-15T22:59:50.308Z,57.76
2024-04-15T23:02:17.541Z,55.11
2024-04-15T23:04:44.763Z,54.59
2024-04-15T23:07:11.669Z,54.31
2024-04-15T23:09:38.746Z,56.11
2024-04-15T23:12:05.736Z,55.48
2024-04-15T23:14:33.196Z,54.76
2024-04-15T23:17:00.164Z,56.02
2024-04-15T23:19:27.133Z,55.51
2024-04-15T23:21:54.001Z,53.98
2024-04-15T23:24:20.915Z,55.18
2024-04-15T23:26:47.873Z,53.68
2024-04-15T23:29:14.722Z,52.88
2024-04-15T23:31:41.616Z,51.38
2024-04-15T23:34:08.549Z,54.08
2024-04-15T23:36:42.307Z,53.99
2024-04-15T23:39:09.328Z,56.11
2024-04-15T23:41:36.287Z,55.69
2024-04-15T23:44:03.208Z,57.01
2024-04-15T23:46:30.113Z,56.17
2024-04-15T23:48:57.110Z,54.19
2024-04-15T23:51:23.930Z,54.03
2024-04-15T23:53:51.054Z,53.49
2024-04-15T23:56:17.860Z,53.51
2024-04-15T23:58:45.313Z,53.91
